Time,TemperatureF,DewpointF,PressureIn,WindDirection,WindDirectionDegrees,WindSpeedMPH,WindSpeedGustMPH,Humidity,HourlyPrecipIn,Conditions,Clouds,dailyrainin,SoftwareType,DateUTC
2013-01-11 00:04:00,37.0,36.0,29.50,WSW,258,0.0,0.0,96,0.00,,---,0.00,VWS V14.00,2013-01-11 08:04:00,
2013-01-11 00:09:00,37.0,36.0,29.50,WSW,258,0.0,0.0,96,0.00,,---,0.00,VWS V14.00,2013-01-11 08:09:00,
2013-01-11 00:14:00,37.0,36.0,29.50,WSW,258,0.0,0.0,96,0.00,,---,0.00,VWS V14.00,2013-01-11 08:14:00,
2013-01-11 00:19:00,36.9,35.8,29.53,WSW,258,0.0,0.0,96,0.00,,---,0.00,VWS V14.00,2013-01-11 08:19:00,
2013-01-11 00:24:00,36.9,35.8,29.53,WSW,258,0.0,0.0,96,0.00,,---,0.00,VWS V14.00,2013-01-11 08:24:00,
2013-01-11 00:29:00,36.9,35.8,29.53,WSW,258,0.0,0.0,96,0.00,,---,0.00,VWS V14.00,2013-01-11 08:29:00,
2013-01-11 00:34:00,36.9,35.8,29.50,WSW,258,0.0,0.0,96,0.00,,---,0.00,VWS V14.00,2013-01-11 08:34:00,
2013-01-11 00:39:00,36.9,35.8,29.50,WSW,258,0.0,0.0,96,0.00,,---,0.00,VWS V14.00,2013-01-11 08:39:00,
2013-01-11 00:44:00,36.7,35.7,29.50,WSW,258,0.0,0.0,96,0.00,,---,0.00,VWS V14.00,2013-01-11 08:44:00,
2013-01-11 00:49:00,36.7,35.7,29.53,WSW,258,0.0,0.0,96,0.00,,---,0.00,VWS V14.00,2013-01-11 08:49:00,
2013-01-11 00:54:00,36.7,35.7,29.53,WSW,258,0.0,0.0,96,0.00,,---,0.00,VWS V14.00,2013-01-11 08:54:00,
2013-01-11 00:59:00,36.7,35.7,29.53,WSW,258,0.0,0.0,96,0.00,,---,0.00,VWS V14.00,2013-01-11 08:59:00,
2013-01-11 01:04:00,36.5,35.5,29.53,WSW,258,0.0,0.0,96,0.00,,---,0.00,VWS V14.00,2013-01-11 09:04:00,
2013-01-11 01:09:00,36.5,35.5,29.53,WSW,257,0.0,0.0,96,0.00,,---,0.00,VWS V14.00,2013-01-11 09:09:00,
2013-01-11 01:14:00,36.5,35.5,29.53,WSW,258,0.0,0.0,96,0.00,,---,0.00,VWS V14.00,2013-01-11 09:14:00,
2013-01-11 01:19:00,36.5,35.5,29.53,WSW,258,0.0,0.0,96,0.00,,---,0.00,VWS V14.00,2013-01-11 09:19:00,
2013-01-11 01:24:00,36.3,35.3,29.53,WSW,258,0.0,0.0,96,0.00,,---,0.00,VWS V14.00,2013-01-11 09:24:00,
2013-01-11 01:29:00,36.3,35.3,29.53,WSW,258,0.0,0.0,96,0.00,,---,0.00,VWS V14.00,2013-01-11 09:29:00,
2013-01-11 01:34:00,36.1,35.1,29.53,WSW,258,0.0,0.0,96,0.00,,---,0.00,VWS V14.00,2013-01-11 09:34:00,
2013-01-11 01:39:00,36.1,35.1,29.53,WSW,258,0.0,0.0,96,0.00,,---,0.00,VWS V14.00,2013-01-11 09:39:00,
2013-01-11 01:44:00,36.1,35.1,29.53,WSW,258,0.0,0.0,96,0.00,,---,0.00,VWS V14.00,2013-01-11 09:44:00,
2013-01-11 01:49:00,36.1,35.1,29.53,WSW,258,0.0,0.0,96,0.00,,---,0.00,VWS V14.00,2013-01-11 09:49:00,
2013-01-11 01:54:00,36.1,35.1,29.53,WSW,258,0.0,0.0,96,0.00,,---,0.00,VWS V14.00,2013-01-11 09:54:00,
2013-01-11 01:59:00,36.0,34.9,29.53,WSW,258,0.0,0.0,96,0.00,,---,0.00,VWS V14.00,2013-01-11 09:59:00,
2013-01-11 02:04:00,35.8,34.8,29.53,WSW,258,0.0,0.0,96,0.00,,---,0.00,VWS V14.00,2013-01-11 10:04:00,
2013-01-11 02:09:00,35.8,34.5,29.53,WSW,258,0.0,0.0,95,0.00,,---,0.00,VWS V14.00,2013-01-11 10:09:00,
2013-01-11 02:14:00,35.6,34.3,29.53,WSW,258,0.0,0.0,95,0.00,,---,0.00,VWS V14.00,2013-01-11 10:14:00,
2013-01-11 02:19:00,35.6,34.3,29.53,WSW,258,0.0,0.0,95,0.00,,---,0.00,VWS V14.00,2013-01-11 10:19:00,
2013-01-11 02:24:00,35.6,34.6,29.53,WSW,258,0.0,0.0,96,0.00,,---,0.00,VWS V14.00,2013-01-11 10:24:00,
2013-01-11 02:29:00,35.6,34.6,29.53,WSW,258,0.0,0.0,96,0.00,,---,0.00,VWS V14.00,2013-01-11 10:29:00,
2013-01-11 02:34:00,35.4,34.4,29.56,WSW,258,0.0,0.0,96,0.00,,---,0.00,VWS V14.00,2013-01-11 10:34:00,
2013-01-11 02:39:00,35.4,34.4,29.56,WSW,258,0.0,0.0,96,0.00,,---,0.00,VWS V14.00,2013-01-11 10:39:00,
2013-01-11 02:45:00,35.4,34.4,29.56,WSW,258,0.0,0.0,96,0.00,,---,0.00,VWS V14.00,2013-01-11 10:45:00,
2013-01-11 02:50:00,35.2,34.2,29.56,WSW,258,0.0,0.0,96,0.00,,---,0.00,VWS V14.00,2013-01-11 10:50:00,
2013-01-11 02:55:00,35.1,34.0,29.56,WSW,258,0.0,0.0,96,0.00,,---,0.00,VWS V14.00,2013-01-11 10:55:00,
2013-01-11 03:00:00,35.1,34.0,29.56,WSW,258,0.0,0.0,96,0.00,,---,0.00,VWS V14.00,2013-01-11 11:00:00,
2013-01-11 03:05:00,34.9,33.9,29.56,WSW,258,0.0,0.0,96,0.00,,---,0.00,VWS V14.00,2013-01-11 11:05:00,
2013-01-11 03:10:00,34.5,33.2,29.56,WSW,258,0.0,0.0,95,0.00,,---,0.00,VWS V14.00,2013-01-11 11:10:00,
2013-01-11 03:15:00,34.5,33.5,29.56,WSW,258,0.0,0.0,96,0.00,,---,0.00,VWS V14.00,2013-01-11 11:15:00,
2013-01-11 03:20:00,34.5,33.5,29.56,WSW,258,0.0,0.0,96,0.00,,---,0.00,VWS V14.00,2013-01-11 11:20:00,
2013-01-11 03:25:00,34.5,33.5,29.56,WSW,258,0.0,0.0,96,0.00,,---,0.00,VWS V14.00,2013-01-11 11:25:00,
2013-01-11 03:30:00,34.7,33.7,29.56,WSW,258,0.0,0.0,96,0.00,,---,0.00,VWS V14.00,2013-01-11 11:30:00,
2013-01-11 03:35:00,34.7,33.7,29.56,WSW,258,0.0,0.0,96,0.00,,---,0.00,VWS V14.00,2013-01-11 11:35:00,
2013-01-11 03:40:00,34.7,33.7,29.56,WSW,258,0.0,0.0,96,0.00,,---,0.00,VWS V14.00,2013-01-11 11:40:00,
2013-01-11 03:45:00,34.9,33.9,29.56,WSW,258,0.0,0.0,96,0.00,,---,0.00,VWS V14.00,2013-01-11 11:45:00,
2013-01-11 03:50:00,34.7,33.7,29.53,WSW,258,0.0,0.0,96,0.00,,---,0.00,VWS V14.00,2013-01-11 11:50:00,
2013-01-11 03:55:00,34.7,33.7,29.53,WSW,258,0.0,0.0,96,0.00,,---,0.00,VWS V14.00,2013-01-11 11:55:00,
2013-01-11 04:00:00,34.9,33.9,29.53,WSW,258,0.0,0.0,96,0.00,,---,0.00,VWS V14.00,2013-01-11 12:00:00,
2013-01-11 04:05:00,34.9,33.9,29.56,WSW,258,0.0,0.0,96,0.00,,---,0.00,VWS V14.00,2013-01-11 12:05:00,
2013-01-11 04:10:00,34.7,33.7,29.56,WSW,258,0.0,0.0,96,0.00,,---,0.00,VWS V14.00,2013-01-11 12:10:00,
2013-01-11 04:15:00,34.7,33.7,29.56,WSW,258,0.0,0.0,96,0.00,,---,0.00,VWS V14.00,2013-01-11 12:15:00,
2013-01-11 04:20:00,34.7,33.7,29.56,WSW,258,0.0,0.0,96,0.00,,---,0.00,VWS V14.00,2013-01-11 12:20:00,
2013-01-11 04:25:00,34.5,33.5,29.56,WSW,258,0.0,0.0,96,0.00,,---,0.00,VWS V14.00,2013-01-11 12:25:00,
2013-01-11 04:30:00,34.5,33.5,29.56,WSW,258,0.0,0.0,96,0.00,,---,0.00,VWS V14.00,2013-01-11 12:30:00,
2013-01-11 04:35:00,34.5,33.5,29.56,WSW,258,0.0,0.0,96,0.00,,---,0.00,VWS V14.00,2013-01-11 12:35:00,
2013-01-11 04:40:00,34.5,33.5,29.56,WSW,258,0.0,0.0,96,0.00,,---,0.00,VWS V14.00,2013-01-11 12:40:00,
2013-01-11 04:45:00,34.3,33.3,29.56,WSW,258,0.0,0.0,96,0.00,,---,0.00,VWS V14.00,2013-01-11 12:45:00,
2013-01-11 04:50:00,34.3,33.3,29.56,WSW,258,0.0,0.0,96,0.00,,---,0.00,VWS V14.00,2013-01-11 12:50:00,
2013-01-11 04:55:00,34.3,33.3,29.56,WSW,258,0.0,0.0,96,0.00,,---,0.00,VWS V14.00,2013-01-11 12:55:00,
2013-01-11 05:00:00,34.3,33.3,29.56,WSW,258,0.0,0.0,96,0.00,,---,0.00,VWS V14.00,2013-01-11 13:00:00,
2013-01-11 05:05:00,34.3,33.3,29.56,WSW,258,0.0,0.0,96,0.00,,---,0.00,VWS V14.00,2013-01-11 13:05:00,
2013-01-11 05:10:00,34.3,33.3,29.56,WSW,258,0.0,0.0,96,0.00,,---,0.00,VWS V14.00,2013-01-11 13:10:00,
2013-01-11 05:15:00,34.3,33.3,29.56,WSW,258,0.0,0.0,96,0.00,,---,0.00,VWS V14.00,2013-01-11 13:15:00,
2013-01-11 05:20:00,34.2,33.1,29.59,WSW,258,0.0,0.0,96,0.00,,---,0.00,VWS V14.00,2013-01-11 13:20:00,
2013-01-11 05:25:00,34.2,33.1,29.59,WSW,258,0.0,0.0,96,0.00,,---,0.00,VWS V14.00,2013-01-11 13:25:00,
2013-01-11 05:30:00,34.2,33.1,29.59,WSW,258,0.0,0.0,96,0.00,,---,0.00,VWS V14.00,2013-01-11 13:30:00,
2013-01-11 05:35:00,34.2,33.1,29.59,WSW,258,0.0,0.0,96,0.00,,---,0.00,VWS V14.00,2013-01-11 13:35:00,
2013-01-11 05:41:00,34.2,33.1,29.59,WSW,258,0.0,0.0,96,0.00,,---,0.00,VWS V14.00,2013-01-11 13:41:00,
2013-01-11 05:45:00,34.2,33.1,29.59,WSW,258,0.0,0.0,96,0.00,,---,0.00,VWS V14.00,2013-01-11 13:45:00,
2013-01-11 05:51:00,34.2,33.1,29.59,WSW,258,0.0,0.0,96,0.00,,---,0.00,VWS V14.00,2013-01-11 13:51:00,
2013-01-11 05:56:00,34.2,33.1,29.59,WSW,258,0.0,0.0,96,0.00,,---,0.00,VWS V14.00,2013-01-11 13:56:00,
2013-01-11 06:01:00,34.2,33.1,29.59,WSW,258,0.0,0.0,96,0.00,,---,0.00,VWS V14.00,2013-01-11 14:01:00,
2013-01-11 06:06:00,34.2,33.1,29.59,WSW,257,0.0,0.0,96,0.00,,---,0.00,VWS V14.00,2013-01-11 14:06:00,
2013-01-11 06:11:00,34.3,33.3,29.59,WSW,258,0.0,0.0,96,0.00,,---,0.00,VWS V14.00,2013-01-11 14:11:00,
2013-01-11 06:16:00,34.3,33.3,29.59,WSW,258,0.0,0.0,96,0.00,,---,0.00,VWS V14.00,2013-01-11 14:16:00,
2013-01-11 06:21:00,34.3,33.6,29.59,WSW,258,0.0,0.0,97,0.00,,---,0.00,VWS V14.00,2013-01-11 14:21:00,
2013-01-11 06:26:00,34.3,33.3,29.59,WSW,258,0.0,0.0,96,0.00,,---,0.00,VWS V14.00,2013-01-11 14:26:00,
2013-01-11 06:31:00,34.3,33.3,29.59,WSW,258,0.0,0.0,96,0.00,,---,0.00,VWS V14.00,2013-01-11 14:31:00,
2013-01-11 06:36:00,34.3,33.3,29.59,WSW,258,0.0,0.0,96,0.00,,---,0.00,VWS V14.00,2013-01-11 14:36:00,
2013-01-11 06:41:00,34.2,33.1,29.59,WSW,258,0.0,0.0,96,0.00,,---,0.00,VWS V14.00,2013-01-11 14:41:00,
2013-01-11 06:46:00,34.2,33.1,29.59,WSW,258,0.0,0.0,96,0.00,,---,0.00,VWS V14.00,2013-01-11 14:46:00,
2013-01-11 06:51:00,34.3,33.3,29.62,WSW,258,0.0,0.0,96,0.00,,---,0.00,VWS V14.00,2013-01-11 14:51:00,
2013-01-11 06:56:00,34.3,33.3,29.62,WSW,258,0.0,0.0,96,0.00,,---,0.00,VWS V14.00,2013-01-11 14:56:00,
2013-01-11 07:01:00,34.2,33.1,29.62,WSW,258,0.0,0.0,96,0.00,,---,0.00,VWS V14.00,2013-01-11 15:01:00,
2013-01-11 07:06:00,34.2,33.1,29.62,WSW,258,0.0,0.0,96,0.00,,---,0.00,VWS V14.00,2013-01-11 15:06:00,
2013-01-11 07:11:00,34.2,33.1,29.62,WSW,258,0.0,0.0,96,0.00,,---,0.00,VWS V14.00,2013-01-11 15:11:00,
2013-01-11 07:16:00,34.0,33.0,29.62,WSW,258,0.0,0.0,96,0.00,,---,0.00,VWS V14.00,2013-01-11 15:16:00,
2013-01-11 07:21:00,34.0,33.0,29.62,WSW,258,0.0,0.0,96,0.00,,---,0.00,VWS V14.00,2013-01-11 15:21:00,
2013-01-11 07:26:00,34.0,33.0,29.62,WSW,258,0.0,0.0,96,0.00,,---,0.00,VWS V14.00,2013-01-11 15:26:00,
2013-01-11 07:31:00,34.0,33.0,29.62,WSW,258,0.0,0.0,96,0.00,,---,0.00,VWS V14.00,2013-01-11 15:31:00,
2013-01-11 07:36:00,33.8,32.8,29.65,WSW,258,0.0,0.0,96,0.00,,---,0.00,VWS V14.00,2013-01-11 15:36:00,
2013-01-11 07:41:00,33.6,32.6,29.65,WSW,258,0.0,0.0,96,0.00,,---,0.00,VWS V14.00,2013-01-11 15:41:00,
2013-01-11 07:46:00,33.4,32.4,29.65,WSW,258,0.0,0.0,96,0.00,,---,0.00,VWS V14.00,2013-01-11 15:46:00,
2013-01-11 07:51:00,33.3,32.0,29.65,WSW,258,0.0,0.0,95,0.00,,---,0.00,VWS V14.00,2013-01-11 15:51:00,
2013-01-11 07:56:00,33.1,31.8,29.65,WSW,258,0.0,0.0,95,0.00,,---,0.00,VWS V14.00,2013-01-11 15:56:00,
2013-01-11 08:01:00,33.1,31.8,29.65,WSW,258,0.0,0.0,95,0.00,,---,0.00,VWS V14.00,2013-01-11 16:01:00,
2013-01-11 08:06:00,33.1,31.8,29.65,WSW,258,0.0,0.0,95,0.00,,---,0.00,VWS V14.00,2013-01-11 16:06:00,
2013-01-11 08:11:00,32.9,31.6,29.65,WSW,258,0.0,0.0,95,0.00,,---,0.00,VWS V14.00,2013-01-11 16:11:00,
2013-01-11 08:16:00,33.1,31.8,29.65,WSW,258,0.0,0.0,95,0.00,,---,0.00,VWS V14.00,2013-01-11 16:16:00,
2013-01-11 08:21:00,33.3,32.0,29.65,WSW,258,0.0,0.0,95,0.00,,---,0.00,VWS V14.00,2013-01-11 16:21:00,
2013-01-11 08:26:00,33.1,31.8,29.65,WSW,258,0.0,0.0,95,0.00,,---,0.00,VWS V14.00,2013-01-11 16:26:00,
2013-01-11 08:31:00,33.1,31.8,29.65,WSW,257,0.0,0.0,95,0.00,,---,0.00,VWS V14.00,2013-01-11 16:31:00,
2013-01-11 08:36:00,32.9,31.6,29.65,WSW,258,0.0,0.0,95,0.00,,---,0.00,VWS V14.00,2013-01-11 16:36:00,
2013-01-11 08:41:00,32.7,31.5,29.65,WSW,257,0.0,0.0,95,0.00,,---,0.00,VWS V14.00,2013-01-11 16:41:00,
2013-01-11 08:46:00,32.5,31.0,29.65,WSW,258,0.0,0.0,94,0.00,,---,0.00,VWS V14.00,2013-01-11 16:46:00,
2013-01-11 08:51:00,32.5,31.3,29.68,WSW,258,0.0,0.0,95,0.00,,---,0.00,VWS V14.00,2013-01-11 16:51:00,
2013-01-11 08:56:00,32.5,31.0,29.68,WSW,257,0.0,0.0,94,0.00,,---,0.00,VWS V14.00,2013-01-11 16:56:00,
2013-01-11 09:01:00,32.4,30.8,29.68,WSW,258,0.0,0.0,94,0.00,,---,0.00,VWS V14.00,2013-01-11 17:01:00,
2013-01-11 09:06:00,32.5,31.0,29.68,WSW,258,0.0,0.0,94,0.00,,---,0.00,VWS V14.00,2013-01-11 17:06:00,
2013-01-11 09:11:00,32.7,31.2,29.68,WSW,258,0.0,0.0,94,0.00,,---,0.00,VWS V14.00,2013-01-11 17:11:00,
2013-01-11 09:16:00,32.7,31.2,29.68,WSW,258,0.0,0.0,94,0.00,,---,0.00,VWS V14.00,2013-01-11 17:16:00,
2013-01-11 09:21:00,32.5,31.0,29.68,WSW,258,0.0,0.0,94,0.00,,---,0.00,VWS V14.00,2013-01-11 17:21:00,
2013-01-11 09:26:00,32.5,31.0,29.68,WSW,258,0.0,0.0,94,0.00,,---,0.00,VWS V14.00,2013-01-11 17:26:00,
2013-01-11 09:31:00,32.4,30.8,29.68,WSW,258,0.0,0.0,94,0.00,,---,0.00,VWS V14.00,2013-01-11 17:31:00,
2013-01-11 09:36:00,32.2,30.4,29.68,WSW,258,0.0,0.0,93,0.00,,---,0.00,VWS V14.00,2013-01-11 17:36:00,
2013-01-11 09:41:00,32.4,30.3,29.68,WSW,258,0.0,0.0,92,0.00,,---,0.00,VWS V14.00,2013-01-11 17:41:00,
2013-01-11 09:46:00,32.5,30.5,29.68,WSW,258,0.0,0.0,92,0.00,,---,0.00,VWS V14.00,2013-01-11 17:46:00,
2013-01-11 09:51:00,32.7,30.7,29.68,WSW,258,0.0,0.0,92,0.00,,---,0.00,VWS V14.00,2013-01-11 17:51:00,
2013-01-11 09:56:00,33.1,31.3,29.68,WSW,258,0.0,0.0,93,0.00,,---,0.00,VWS V14.00,2013-01-11 17:56:00,
2013-01-11 10:01:00,33.1,31.3,29.68,WSW,258,0.0,0.0,93,0.00,,---,0.00,VWS V14.00,2013-01-11 18:01:00,
2013-01-11 10:06:00,33.3,31.5,29.68,WSW,258,0.0,0.0,93,0.00,,---,0.00,VWS V14.00,2013-01-11 18:06:00,
2013-01-11 10:12:00,33.3,31.5,29.68,WSW,258,0.0,0.0,93,0.00,,---,0.00,VWS V14.00,2013-01-11 18:12:00,
2013-01-11 10:17:00,33.3,31.5,29.68,WSW,258,0.0,0.0,93,0.00,,---,0.00,VWS V14.00,2013-01-11 18:17:00,
2013-01-11 10:22:00,33.3,31.5,29.71,WSW,258,0.0,0.0,93,0.00,,---,0.00,VWS V14.00,2013-01-11 18:22:00,
2013-01-11 10:27:00,33.6,31.8,29.71,WSW,258,0.0,0.0,93,0.00,,---,0.00,VWS V14.00,2013-01-11 18:27:00,
2013-01-11 10:32:00,33.6,31.8,29.71,West,259,0.0,0.0,93,0.00,,---,0.00,VWS V14.00,2013-01-11 18:32:00,
2013-01-11 10:37:00,34.0,32.2,29.71,WSW,258,0.0,0.0,93,0.00,,---,0.00,VWS V14.00,2013-01-11 18:37:00,
2013-01-11 10:42:00,34.3,32.8,29.71,WSW,258,0.0,0.0,94,0.00,,---,0.00,VWS V14.00,2013-01-11 18:42:00,
2013-01-11 10:47:00,34.5,33.0,29.71,WSW,258,0.0,0.0,94,0.00,,---,0.00,VWS V14.00,2013-01-11 18:47:00,
2013-01-11 10:52:00,34.7,33.2,29.71,WSW,258,0.0,0.0,94,0.00,,---,0.00,VWS V14.00,2013-01-11 18:52:00,
2013-01-11 10:57:00,34.9,33.3,29.71,WSW,257,0.0,0.0,94,0.00,,---,0.00,VWS V14.00,2013-01-11 18:57:00,
2013-01-11 11:02:00,34.9,33.3,29.71,WSW,258,0.0,0.0,94,0.00,,---,0.00,VWS V14.00,2013-01-11 19:02:00,
2013-01-11 11:07:00,35.1,33.5,29.71,WSW,258,0.0,0.0,94,0.00,,---,0.00,VWS V14.00,2013-01-11 19:07:00,
2013-01-11 11:12:00,35.2,34.0,29.71,WSW,258,0.0,0.0,95,0.00,,---,0.00,VWS V14.00,2013-01-11 19:12:00,
2013-01-11 11:17:00,35.4,34.1,29.71,WSW,258,0.0,0.0,95,0.00,,---,0.00,VWS V14.00,2013-01-11 19:17:00,
2013-01-11 11:22:00,35.4,34.1,29.71,WSW,258,0.0,0.0,95,0.00,,---,0.00,VWS V14.00,2013-01-11 19:22:00,
2013-01-11 11:27:00,35.6,34.0,29.71,WSW,258,0.0,0.0,94,0.00,,---,0.00,VWS V14.00,2013-01-11 19:27:00,
2013-01-11 11:32:00,35.6,34.0,29.71,WSW,258,0.0,0.0,94,0.00,,---,0.00,VWS V14.00,2013-01-11 19:32:00,
2013-01-11 11:37:00,35.8,34.2,29.71,WSW,258,0.0,0.0,94,0.00,,---,0.00,VWS V14.00,2013-01-11 19:37:00,
2013-01-11 11:42:00,35.8,34.2,29.71,WSW,258,0.0,0.0,94,0.00,,---,0.00,VWS V14.00,2013-01-11 19:42:00,
2013-01-11 11:47:00,36.1,34.6,29.71,WSW,257,0.0,0.0,94,0.00,,---,0.00,VWS V14.00,2013-01-11 19:47:00,
2013-01-11 11:52:00,36.5,35.2,29.71,WSW,258,0.0,0.0,95,0.00,,---,0.00,VWS V14.00,2013-01-11 19:52:00,
2013-01-11 11:57:00,36.9,35.6,29.71,WSW,258,0.0,0.0,95,0.00,,---,0.00,VWS V14.00,2013-01-11 19:57:00,
2013-01-11 12:02:00,37.0,35.7,29.71,WSW,258,0.0,0.0,95,0.00,,---,0.00,VWS V14.00,2013-01-11 20:02:00,
2013-01-11 12:07:00,37.0,35.7,29.71,WSW,258,0.0,0.0,95,0.00,,---,0.00,VWS V14.00,2013-01-11 20:07:00,
2013-01-11 12:12:00,37.2,35.9,29.71,WSW,258,0.0,0.0,95,0.00,,---,0.00,VWS V14.00,2013-01-11 20:12:00,
2013-01-11 12:17:00,37.4,36.1,29.71,WSW,258,0.0,0.0,95,0.00,,---,0.00,VWS V14.00,2013-01-11 20:17:00,
2013-01-11 12:22:00,37.0,35.7,29.71,WSW,258,0.0,0.0,95,0.00,,---,0.00,VWS V14.00,2013-01-11 20:22:00,
2013-01-11 12:27:00,37.4,36.1,29.71,WSW,258,0.0,0.0,95,0.00,,---,0.00,VWS V14.00,2013-01-11 20:27:00,
2013-01-11 12:32:00,38.1,37.1,29.71,WSW,258,0.0,0.0,96,0.00,,---,0.00,VWS V14.00,2013-01-11 20:32:00,
2013-01-11 12:37:00,39.0,38.0,29.71,WSW,258,0.0,0.0,96,0.00,,---,0.00,VWS V14.00,2013-01-11 20:37:00,
2013-01-11 12:42:00,39.7,38.7,29.71,WSW,258,0.0,0.0,96,0.00,,---,0.00,VWS V14.00,2013-01-11 20:42:00,
2013-01-11 12:47:00,41.2,40.1,29.71,WSW,258,0.0,0.0,96,0.00,,---,0.00,VWS V14.00,2013-01-11 20:47:00,
2013-01-11 12:52:00,41.5,40.5,29.71,WSW,258,0.0,0.0,96,0.00,,---,0.00,VWS V14.00,2013-01-11 20:52:00,
2013-01-11 12:57:00,41.2,39.9,29.71,WSW,257,0.0,0.0,95,0.00,,---,0.00,VWS V14.00,2013-01-11 20:57:00,
2013-01-11 13:02:00,40.6,39.0,29.71,WSW,258,0.0,0.0,94,0.00,,---,0.00,VWS V14.00,2013-01-11 21:02:00,
2013-01-11 13:07:00,40.3,38.7,29.71,WSW,257,0.0,0.0,94,0.00,,---,0.00,VWS V14.00,2013-01-11 21:07:00,
2013-01-11 13:12:00,40.6,39.0,29.71,WSW,258,0.0,0.0,94,0.00,,---,0.00,VWS V14.00,2013-01-11 21:12:00,
2013-01-11 13:17:00,40.8,39.2,29.71,WSW,258,0.0,0.0,94,0.00,,---,0.00,VWS V14.00,2013-01-11 21:17:00,
2013-01-11 13:22:00,40.6,39.0,29.71,WSW,258,0.0,0.0,94,0.00,,---,0.00,VWS V14.00,2013-01-11 21:22:00,
2013-01-11 13:27:00,40.8,39.2,29.71,WSW,257,0.0,0.0,94,0.00,,---,0.00,VWS V14.00,2013-01-11 21:27:00,
2013-01-11 13:32:00,41.7,40.4,29.71,WSW,257,0.0,0.0,95,0.00,,---,0.00,VWS V14.00,2013-01-11 21:32:00,
2013-01-11 13:37:00,43.5,42.2,29.71,SSE,164,0.0,0.0,95,0.00,,---,0.00,VWS V14.00,2013-01-11 21:37:00,
2013-01-11 13:42:00,44.2,42.9,29.71,SSE,164,0.0,0.0,95,0.00,,---,0.00,VWS V14.00,2013-01-11 21:42:00,
2013-01-11 13:47:00,44.1,42.5,29.71,SSE,163,0.0,0.0,94,0.00,,---,0.00,VWS V14.00,2013-01-11 21:47:00,
2013-01-11 13:52:00,45.3,43.7,29.71,SE,134,0.0,0.0,94,0.00,,---,0.00,VWS V14.00,2013-01-11 21:52:00,
2013-01-11 13:57:00,47.3,45.7,29.71,ESE,113,0.0,0.0,94,0.00,,---,0.00,VWS V14.00,2013-01-11 21:57:00,
2013-01-11 14:02:00,47.3,45.4,29.71,ESE,113,0.0,0.0,93,0.00,,---,0.00,VWS V14.00,2013-01-11 22:02:00,
2013-01-11 14:07:00,47.7,45.7,29.71,ESE,106,0.0,0.0,93,0.00,,---,0.00,VWS V14.00,2013-01-11 22:07:00,
2013-01-11 14:12:00,48.7,46.8,29.71,ESE,106,0.0,0.0,93,0.00,,---,0.00,VWS V14.00,2013-01-11 22:12:00,
2013-01-11 14:17:00,48.9,46.7,29.71,ESE,104,0.0,0.0,92,0.00,,---,0.00,VWS V14.00,2013-01-11 22:17:00,
2013-01-11 14:22:00,49.1,46.9,29.71,ESE,104,0.0,0.0,92,0.00,,---,0.00,VWS V14.00,2013-01-11 22:22:00,
2013-01-11 14:27:00,49.3,46.8,29.71,ESE,104,0.0,0.0,91,0.00,,---,0.00,VWS V14.00,2013-01-11 22:27:00,
2013-01-11 14:32:00,47.7,44.0,29.71,ESE,105,0.0,0.0,87,0.00,,---,0.00,VWS V14.00,2013-01-11 22:32:00,
2013-01-11 14:37:00,47.3,43.3,29.71,ESE,105,0.0,0.0,86,0.00,,---,0.00,VWS V14.00,2013-01-11 22:37:00,
2013-01-11 14:42:00,46.0,41.8,29.71,ESE,105,0.0,0.0,85,0.00,,---,0.00,VWS V14.00,2013-01-11 22:42:00,
2013-01-11 14:47:00,44.1,38.3,29.71,East,99,0.0,0.0,80,0.00,,---,0.00,VWS V14.00,2013-01-11 22:47:00,
2013-01-11 14:53:00,42.8,37.1,29.71,East,99,0.0,0.0,80,0.00,,---,0.00,VWS V14.00,2013-01-11 22:53:00,
2013-01-11 14:58:00,41.7,36.3,29.71,East,89,0.0,0.0,81,0.00,,---,0.00,VWS V14.00,2013-01-11 22:58:00,
2013-01-11 15:03:00,41.0,35.9,29.71,East,89,0.0,0.0,82,0.00,,---,0.00,VWS V14.00,2013-01-11 23:03:00,
2013-01-11 15:08:00,40.6,35.9,29.71,East,89,0.0,0.0,83,0.00,,---,0.00,VWS V14.00,2013-01-11 23:08:00,
2013-01-11 15:13:00,40.6,36.5,29.71,East,89,0.0,0.0,85,0.00,,---,0.00,VWS V14.00,2013-01-11 23:13:00,
2013-01-11 15:18:00,40.8,37.0,29.71,East,89,0.0,0.0,86,0.00,,---,0.00,VWS V14.00,2013-01-11 23:18:00,
2013-01-11 15:23:00,40.8,37.0,29.71,East,89,0.0,0.0,86,0.00,,---,0.00,VWS V14.00,2013-01-11 23:23:00,
2013-01-11 15:28:00,40.6,36.8,29.71,East,89,0.0,0.0,86,0.00,,---,0.00,VWS V14.00,2013-01-11 23:28:00,
2013-01-11 15:33:00,40.5,36.9,29.74,East,89,0.0,0.0,87,0.00,,---,0.00,VWS V14.00,2013-01-11 23:33:00,
2013-01-11 15:38:00,40.3,36.7,29.74,East,89,0.0,0.0,87,0.00,,---,0.00,VWS V14.00,2013-01-11 23:38:00,
2013-01-11 15:43:00,40.1,36.5,29.74,East,89,0.0,0.0,87,0.00,,---,0.00,VWS V14.00,2013-01-11 23:43:00,
2013-01-11 15:48:00,39.9,36.4,29.71,East,89,0.0,0.0,87,0.00,,---,0.00,VWS V14.00,2013-01-11 23:48:00,
2013-01-11 15:53:00,39.7,36.2,29.71,East,89,0.0,0.0,87,0.00,,---,0.00,VWS V14.00,2013-01-11 23:53:00,
2013-01-11 15:58:00,39.4,35.8,29.71,East,89,0.0,0.0,87,0.00,,---,0.00,VWS V14.00,2013-01-11 23:58:00,
2013-01-11 16:03:00,39.2,35.7,29.74,East,89,0.0,0.0,87,0.00,,---,0.00,VWS V14.00,2013-01-12 00:03:00,
2013-01-11 16:08:00,39.0,35.8,29.74,East,89,0.0,0.0,88,0.00,,---,0.00,VWS V14.00,2013-01-12 00:08:00,
2013-01-11 16:13:00,38.8,35.6,29.74,East,89,0.0,0.0,88,0.00,,---,0.00,VWS V14.00,2013-01-12 00:13:00,
2013-01-11 16:18:00,38.8,35.6,29.71,East,89,0.0,0.0,88,0.00,,---,0.00,VWS V14.00,2013-01-12 00:18:00,
2013-01-11 16:23:00,38.7,35.4,29.71,East,89,0.0,0.0,88,0.00,,---,0.00,VWS V14.00,2013-01-12 00:23:00,
2013-01-11 16:28:00,38.5,35.2,29.71,East,89,0.0,0.0,88,0.00,,---,0.00,VWS V14.00,2013-01-12 00:28:00,
2013-01-11 16:33:00,38.3,35.1,29.74,East,89,0.0,0.0,88,0.00,,---,0.00,VWS V14.00,2013-01-12 00:33:00,
2013-01-11 16:38:00,38.1,34.9,29.74,East,89,0.0,0.0,88,0.00,,---,0.00,VWS V14.00,2013-01-12 00:38:00,
2013-01-11 16:43:00,37.9,34.7,29.74,East,89,0.0,0.0,88,0.00,,---,0.00,VWS V14.00,2013-01-12 00:43:00,
2013-01-11 16:48:00,37.9,34.7,29.74,East,89,0.0,0.0,88,0.00,,---,0.00,VWS V14.00,2013-01-12 00:48:00,
2013-01-11 16:53:00,37.9,35.0,29.74,East,89,0.0,0.0,89,0.00,,---,0.00,VWS V14.00,2013-01-12 00:53:00,
2013-01-11 16:58:00,37.8,34.8,29.74,East,89,0.0,0.0,89,0.00,,---,0.00,VWS V14.00,2013-01-12 00:58:00,
2013-01-11 17:03:00,37.6,34.6,29.74,East,89,0.0,0.0,89,0.00,,---,0.00,VWS V14.00,2013-01-12 01:03:00,
2013-01-11 17:08:00,37.4,34.5,29.74,East,89,0.0,0.0,89,0.00,,---,0.00,VWS V14.00,2013-01-12 01:08:00,
2013-01-11 17:13:00,37.4,34.5,29.74,East,89,0.0,0.0,89,0.00,,---,0.00,VWS V14.00,2013-01-12 01:13:00,
2013-01-11 17:18:00,37.4,34.5,29.74,East,89,0.0,0.0,89,0.00,,---,0.00,VWS V14.00,2013-01-12 01:18:00,
2013-01-11 17:23:00,37.4,34.5,29.74,East,89,0.0,0.0,89,0.00,,---,0.00,VWS V14.00,2013-01-12 01:23:00,
2013-01-11 17:28:00,37.2,34.3,29.74,East,89,0.0,0.0,89,0.00,,---,0.00,VWS V14.00,2013-01-12 01:28:00,
2013-01-11 17:33:00,37.0,34.1,29.74,East,89,0.0,0.0,89,0.00,,---,0.00,VWS V14.00,2013-01-12 01:33:00,
2013-01-11 17:38:00,37.0,34.1,29.74,East,89,0.0,0.0,89,0.00,,---,0.00,VWS V14.00,2013-01-12 01:38:00,
2013-01-11 17:43:00,36.9,33.9,29.74,East,89,0.0,0.0,89,0.00,,---,0.00,VWS V14.00,2013-01-12 01:43:00,
2013-01-11 17:48:00,36.9,34.2,29.74,East,89,0.0,0.0,90,0.00,,---,0.00,VWS V14.00,2013-01-12 01:48:00,
2013-01-11 17:53:00,36.9,34.2,29.74,East,89,0.0,0.0,90,0.00,,---,0.00,VWS V14.00,2013-01-12 01:53:00,
2013-01-11 17:58:00,36.9,34.2,29.74,East,89,0.0,0.0,90,0.00,,---,0.00,VWS V14.00,2013-01-12 01:58:00,
2013-01-11 18:03:00,36.7,34.0,29.74,East,89,0.0,0.0,90,0.00,,---,0.00,VWS V14.00,2013-01-12 02:03:00,
2013-01-11 18:08:00,36.9,34.2,29.74,East,89,0.0,0.0,90,0.00,,---,0.00,VWS V14.00,2013-01-12 02:08:00,
2013-01-11 18:13:00,37.0,34.7,29.74,East,89,0.0,0.0,91,0.00,,---,0.00,VWS V14.00,2013-01-12 02:13:00,
2013-01-11 18:18:00,37.0,34.7,29.74,East,89,0.0,0.0,91,0.00,,---,0.00,VWS V14.00,2013-01-12 02:18:00,
2013-01-11 18:23:00,37.0,34.4,29.74,East,89,0.0,0.0,90,0.00,,---,0.00,VWS V14.00,2013-01-12 02:23:00,
2013-01-11 18:28:00,36.9,34.2,29.74,East,89,0.0,0.0,90,0.00,,---,0.00,VWS V14.00,2013-01-12 02:28:00,
2013-01-11 18:33:00,36.9,34.2,29.74,East,89,0.0,0.0,90,0.00,,---,0.00,VWS V14.00,2013-01-12 02:33:00,
2013-01-11 18:38:00,36.7,34.0,29.74,East,89,0.0,0.0,90,0.00,,---,0.00,VWS V14.00,2013-01-12 02:38:00,
2013-01-11 18:43:00,36.7,34.0,29.74,East,89,0.0,0.0,90,0.00,,---,0.00,VWS V14.00,2013-01-12 02:43:00,
2013-01-11 18:48:00,36.7,33.8,29.74,East,89,0.0,0.0,89,0.00,,---,0.00,VWS V14.00,2013-01-12 02:48:00,
2013-01-11 18:53:00,36.5,33.6,29.74,East,89,0.0,0.0,89,0.00,,---,0.00,VWS V14.00,2013-01-12 02:53:00,
2013-01-11 18:58:00,36.5,33.6,29.74,East,89,0.0,0.0,89,0.00,,---,0.00,VWS V14.00,2013-01-12 02:58:00,
2013-01-11 19:03:00,36.5,33.6,29.74,East,89,0.0,0.0,89,0.00,,---,0.00,VWS V14.00,2013-01-12 03:03:00,
2013-01-11 19:09:00,36.5,33.6,29.74,East,89,0.0,0.0,89,0.00,,---,0.00,VWS V14.00,2013-01-12 03:09:00,
2013-01-11 19:14:00,36.3,33.4,29.74,East,89,0.0,0.0,89,0.00,,---,0.00,VWS V14.00,2013-01-12 03:14:00,
2013-01-11 19:19:00,36.3,33.4,29.74,East,89,0.0,0.0,89,0.00,,---,0.00,VWS V14.00,2013-01-12 03:19:00,
2013-01-11 19:24:00,36.3,33.4,29.74,East,89,0.0,0.0,89,0.00,,---,0.00,VWS V14.00,2013-01-12 03:24:00,
2013-01-11 19:29:00,36.3,33.4,29.74,East,89,0.0,0.0,89,0.00,,---,0.00,VWS V14.00,2013-01-12 03:29:00,
2013-01-11 19:34:00,36.1,33.2,29.71,East,89,0.0,0.0,89,0.00,,---,0.00,VWS V14.00,2013-01-12 03:34:00,
2013-01-11 19:39:00,35.8,32.9,29.71,East,89,0.0,0.0,89,0.00,,---,0.00,VWS V14.00,2013-01-12 03:39:00,
2013-01-11 19:44:00,35.6,32.7,29.71,East,89,0.0,0.0,89,0.00,,---,0.00,VWS V14.00,2013-01-12 03:44:00,
2013-01-11 19:49:00,35.6,32.7,29.71,East,89,0.0,0.0,89,0.00,,---,0.00,VWS V14.00,2013-01-12 03:49:00,
2013-01-11 19:54:00,35.6,32.7,29.71,East,89,0.0,0.0,89,0.00,,---,0.00,VWS V14.00,2013-01-12 03:54:00,
2013-01-11 19:59:00,35.6,32.7,29.71,East,89,0.0,0.0,89,0.00,,---,0.00,VWS V14.00,2013-01-12 03:59:00,
2013-01-11 20:04:00,35.6,32.7,29.74,East,89,0.0,0.0,89,0.00,,---,0.00,VWS V14.00,2013-01-12 04:04:00,
2013-01-11 20:09:00,35.4,32.5,29.74,East,89,0.0,0.0,89,0.00,,---,0.00,VWS V14.00,2013-01-12 04:09:00,
2013-01-11 20:14:00,35.4,32.5,29.74,East,89,0.0,0.0,89,0.00,,---,0.00,VWS V14.00,2013-01-12 04:14:00,
2013-01-11 20:19:00,35.2,32.3,29.71,East,89,0.0,0.0,89,0.00,,---,0.00,VWS V14.00,2013-01-12 04:19:00,
2013-01-11 20:24:00,35.1,32.2,29.71,East,89,0.0,0.0,89,0.00,,---,0.00,VWS V14.00,2013-01-12 04:24:00,
2013-01-11 20:29:00,35.1,32.2,29.71,East,89,0.0,0.0,89,0.00,,---,0.00,VWS V14.00,2013-01-12 04:29:00,
2013-01-11 20:34:00,35.1,32.4,29.71,East,89,0.0,0.0,90,0.00,,---,0.00,VWS V14.00,2013-01-12 04:34:00,
2013-01-11 20:39:00,35.1,32.4,29.71,East,89,0.0,0.0,90,0.00,,---,0.00,VWS V14.00,2013-01-12 04:39:00,
2013-01-11 20:44:00,35.1,32.4,29.71,East,89,0.0,0.0,90,0.00,,---,0.00,VWS V14.00,2013-01-12 04:44:00,
2013-01-11 20:49:00,35.1,32.4,29.71,East,89,0.0,0.0,90,0.00,,---,0.00,VWS V14.00,2013-01-12 04:49:00,
2013-01-11 20:54:00,35.1,32.4,29.71,East,89,0.0,0.0,90,0.00,,---,0.00,VWS V14.00,2013-01-12 04:54:00,
2013-01-11 20:59:00,35.1,32.4,29.71,East,89,0.0,0.0,90,0.00,,---,0.00,VWS V14.00,2013-01-12 04:59:00,
2013-01-11 21:00:00,34.9,32.2,29.71,East,89,0.0,0.0,90,0.00,,---,0.00,VWS V14.00,2013-01-12 05:00:00,
2013-01-11 21:01:00,34.9,32.2,29.71,East,89,0.0,0.0,90,0.00,,---,0.00,VWS V14.00,2013-01-12 05:01:00,
2013-01-11 21:03:00,34.9,32.2,29.71,East,89,0.0,0.0,90,0.00,,---,0.00,VWS V14.00,2013-01-12 05:03:00,
2013-01-11 21:08:00,34.9,32.2,29.71,East,89,0.0,0.0,90,0.00,,---,0.00,VWS V14.00,2013-01-12 05:08:00,
2013-01-11 21:13:00,34.9,32.2,29.71,East,89,0.0,0.0,90,0.00,,---,0.00,VWS V14.00,2013-01-12 05:13:00,
2013-01-11 21:18:00,34.9,32.2,29.74,East,89,0.0,0.0,90,0.00,,---,0.00,VWS V14.00,2013-01-12 05:18:00,
2013-01-11 21:23:00,34.9,32.2,29.74,East,89,0.0,0.0,90,0.00,,---,0.00,VWS V14.00,2013-01-12 05:23:00,
2013-01-11 21:28:00,34.9,32.2,29.74,East,89,0.0,0.0,90,0.00,,---,0.00,VWS V14.00,2013-01-12 05:28:00,
2013-01-11 21:33:00,34.7,32.1,29.74,East,89,0.0,0.0,90,0.00,,---,0.00,VWS V14.00,2013-01-12 05:33:00,
2013-01-11 21:38:00,34.7,32.1,29.74,East,89,0.0,0.0,90,0.00,,---,0.00,VWS V14.00,2013-01-12 05:38:00,
2013-01-11 21:43:00,34.7,32.1,29.74,East,89,0.0,0.0,90,0.00,,---,0.00,VWS V14.00,2013-01-12 05:43:00,
2013-01-11 21:48:00,34.7,32.1,29.74,East,89,0.0,0.0,90,0.00,,---,0.00,VWS V14.00,2013-01-12 05:48:00,
2013-01-11 21:53:00,34.7,32.1,29.74,East,89,0.0,0.0,90,0.00,,---,0.00,VWS V14.00,2013-01-12 05:53:00,
2013-01-11 21:58:00,34.5,31.9,29.74,East,89,0.0,0.0,90,0.00,,---,0.00,VWS V14.00,2013-01-12 05:58:00,
2013-01-11 22:03:00,34.5,31.6,29.74,East,89,0.0,0.0,89,0.00,,---,0.00,VWS V14.00,2013-01-12 06:03:00,
2013-01-11 22:08:00,34.5,31.6,29.74,East,89,0.0,0.0,89,0.00,,---,0.00,VWS V14.00,2013-01-12 06:08:00,
2013-01-11 22:13:00,34.3,31.4,29.74,East,89,0.0,0.0,89,0.00,,---,0.00,VWS V14.00,2013-01-12 06:13:00,
2013-01-11 22:18:00,34.3,31.4,29.74,East,89,0.0,0.0,89,0.00,,---,0.00,VWS V14.00,2013-01-12 06:18:00,
2013-01-11 22:23:00,34.3,31.7,29.74,East,89,0.0,0.0,90,0.00,,---,0.00,VWS V14.00,2013-01-12 06:23:00,
2013-01-11 22:29:00,34.3,31.7,29.74,East,89,0.0,0.0,90,0.00,,---,0.00,VWS V14.00,2013-01-12 06:29:00,
2013-01-11 22:34:00,34.3,31.7,29.74,East,89,0.0,0.0,90,0.00,,---,0.00,VWS V14.00,2013-01-12 06:34:00,
2013-01-11 22:39:00,34.3,31.7,29.74,East,89,0.0,0.0,90,0.00,,---,0.00,VWS V14.00,2013-01-12 06:39:00,
2013-01-11 22:44:00,34.3,31.7,29.74,East,89,0.0,0.0,90,0.00,,---,0.00,VWS V14.00,2013-01-12 06:44:00,
2013-01-11 22:49:00,34.2,31.5,29.74,East,89,0.0,0.0,90,0.00,,---,0.00,VWS V14.00,2013-01-12 06:49:00,
2013-01-11 22:54:00,34.2,31.5,29.74,East,89,0.0,0.0,90,0.00,,---,0.00,VWS V14.00,2013-01-12 06:54:00,
2013-01-11 22:59:00,34.2,31.5,29.74,East,89,0.0,0.0,90,0.00,,---,0.00,VWS V14.00,2013-01-12 06:59:00,
2013-01-11 23:04:00,34.2,31.5,29.74,East,89,0.0,0.0,90,0.00,,---,0.00,VWS V14.00,2013-01-12 07:04:00,
2013-01-11 23:09:00,34.2,31.5,29.74,East,89,0.0,0.0,90,0.00,,---,0.00,VWS V14.00,2013-01-12 07:09:00,
2013-01-11 23:14:00,34.2,31.5,29.74,East,89,0.0,0.0,90,0.00,,---,0.00,VWS V14.00,2013-01-12 07:14:00,
2013-01-11 23:19:00,34.0,31.4,29.74,East,89,0.0,0.0,90,0.00,,---,0.00,VWS V14.00,2013-01-12 07:19:00,
2013-01-11 23:24:00,34.0,31.4,29.74,East,89,0.0,0.0,90,0.00,,---,0.00,VWS V14.00,2013-01-12 07:24:00,
2013-01-11 23:29:00,34.0,31.4,29.74,East,89,0.0,0.0,90,0.00,,---,0.00,VWS V14.00,2013-01-12 07:29:00,
2013-01-11 23:34:00,34.0,31.4,29.71,East,89,0.0,0.0,90,0.00,,---,0.00,VWS V14.00,2013-01-12 07:34:00,
2013-01-11 23:39:00,34.0,31.4,29.71,East,89,0.0,0.0,90,0.00,,---,0.00,VWS V14.00,2013-01-12 07:39:00,
2013-01-11 23:44:00,34.0,31.4,29.71,East,89,0.0,0.0,90,0.00,,---,0.00,VWS V14.00,2013-01-12 07:44:00,
2013-01-11 23:49:00,34.0,31.4,29.71,East,89,0.0,0.0,90,0.00,,---,0.00,VWS V14.00,2013-01-12 07:49:00,
2013-01-11 23:54:00,34.0,31.4,29.71,East,89,0.0,0.0,90,0.00,,---,0.00,VWS V14.00,2013-01-12 07:54:00,
2013-01-11 23:59:00,34.2,31.5,29.71,East,89,0.0,0.0,90,0.00,,---,0.00,VWS V14.00,2013-01-12 07:59:00,